地図

経路データ

SID SEASON NUMBER BASIN SUBBASIN NAME ISO_TIME NATURE LAT LON WMO_WIND WMO_PRES WMO_AGENCY TRACK_TYPE DIST2LAND LANDFALL IFLAG USA_AGENCY USA_ATCF_ID USA_LAT USA_LON USA_RECORD USA_STATUS USA_WIND USA_PRES USA_SSHS USA_R34_NE USA_R34_SE USA_R34_SW USA_R34_NW USA_R50_NE USA_R50_SE USA_R50_SW USA_R50_NW USA_R64_NE USA_R64_SE USA_R64_SW USA_R64_NW USA_POCI USA_ROCI USA_RMW USA_EYE TOKYO_LAT TOKYO_LON TOKYO_GRADE TOKYO_WIND TOKYO_PRES TOKYO_R50_DIR TOKYO_R50_LONG TOKYO_R50_SHORT TOKYO_R30_DIR TOKYO_R30_LONG TOKYO_R30_SHORT TOKYO_LAND CMA_LAT CMA_LON CMA_CAT CMA_WIND CMA_PRES HKO_LAT HKO_LON HKO_CAT HKO_WIND HKO_PRES NEWDELHI_LAT NEWDELHI_LON NEWDELHI_GRADE NEWDELHI_WIND NEWDELHI_PRES NEWDELHI_CI NEWDELHI_DP NEWDELHI_POCI REUNION_LAT REUNION_LON REUNION_TYPE REUNION_WIND REUNION_PRES REUNION_TNUM REUNION_CI REUNION_RMW REUNION_R34_NE REUNION_R34_SE REUNION_R34_SW REUNION_R34_NW REUNION_R50_NE REUNION_R50_SE REUNION_R50_SW REUNION_R50_NW REUNION_R64_NE REUNION_R64_SE REUNION_R64_SW REUNION_R64_NW BOM_LAT BOM_LON BOM_TYPE BOM_WIND BOM_PRES BOM_TNUM BOM_CI BOM_RMW BOM_R34_NE BOM_R34_SE BOM_R34_SW BOM_R34_NW BOM_R50_NE BOM_R50_SE BOM_R50_SW BOM_R50_NW BOM_R64_NE BOM_R64_SE BOM_R64_SW BOM_R64_NW BOM_ROCI BOM_POCI BOM_EYE BOM_POS_METHOD BOM_PRES_METHOD NADI_LAT NADI_LON NADI_CAT NADI_WIND NADI_PRES WELLINGTON_LAT WELLINGTON_LON WELLINGTON_WIND WELLINGTON_PRES DS824_LAT DS824_LON DS824_STAGE DS824_WIND DS824_PRES TD9636_LAT TD9636_LON TD9636_STAGE TD9636_WIND TD9636_PRES TD9635_LAT TD9635_LON TD9635_WIND TD9635_PRES TD9635_ROCI NEUMANN_LAT NEUMANN_LON NEUMANN_CLASS NEUMANN_WIND NEUMANN_PRES MLC_LAT MLC_LON MLC_CLASS MLC_WIND MLC_PRES USA_GUST BOM_GUST BOM_GUST_PER REUNION_GUST REUNION_GUST_PER USA_SEAHGT USA_SEARAD_NE USA_SEARAD_SE USA_SEARAD_SW USA_SEARAD_NW STORM_SPEED STORM_DIR
1997118S09166 1997 27 SP MM JUNE 1997-04-27 18:00:00 TS -9.00000 165.600 main 408 408 O___________O_ jtwc_sh SH351997 -9.00000 165.600 15 -1 -9.00000 165.600 TC 15 4 105
1997118S09166 1997 27 SP MM JUNE 1997-04-27 21:00:00 TS -9.05253 165.802 main 423 423 P___________P_ SH351997 -9.05253 165.802 15 -1 -9.05253 165.802 TC 15 4 104
1997118S09166 1997 27 SP MM JUNE 1997-04-28 00:00:00 TS -9.10000 166.000 main 443 443 O___________O_ jtwc_sh SH351997 -9.10000 166.000 15 -1 -9.10000 166.000 TC 15 4 103
1997118S09166 1997 27 SP MM JUNE 1997-04-28 03:00:00 TS -9.14248 166.193 main 463 459 P___________P_ SH351997 -9.14248 166.193 15 -1 -9.14248 166.193 TC 15 4 104
1997118S09166 1997 27 SP MM JUNE 1997-04-28 06:00:00 TS -9.20000 166.400 main 479 479 O___________O_ jtwc_sh SH351997 -9.20000 166.400 15 -1 -9.20000 166.400 TC 15 5 108
1997118S09166 1997 27 SP MM JUNE 1997-04-28 09:00:00 TS -9.28501 166.650 main 507 496 P___________P_ SH351997 -9.28501 166.650 15 -1 -9.28501 166.650 TC 15 5 112
1997118S09166 1997 27 SP MM JUNE 1997-04-28 12:00:00 TS -9.40000 166.900 main 524 524 O___________O_ jtwc_sh SH351997 -9.40000 166.900 15 -1 -9.40000 166.900 TC 15 5 120
1997118S09166 1997 27 SP MM JUNE 1997-04-28 15:00:00 TS -9.54997 167.107 main 542 540 P___________P_ SH351997 -9.54997 167.107 15 -1 -9.54997 167.107 TC 15 5 127
1997118S09166 1997 27 SP MM JUNE 1997-04-28 18:00:00 TS -9.70000 167.300 main 558 555 O___________O_ jtwc_sh SH351997 -9.70000 167.300 15 -1 -9.70000 167.300 TC 15 5 124
1997118S09166 1997 27 SP MM JUNE 1997-04-28 21:00:00 TS -9.80749 167.500 main 557 548 P___________P_ SH351997 -9.80749 167.500 15 -1 -9.80749 167.500 TC 15 4 117
1997118S09166 1997 27 SP MM JUNE 1997-04-29 00:00:00 TS -9.90000 167.700 main 550 542 O___________O_ jtwc_sh SH351997 -9.90000 167.700 15 -1 -9.90000 167.700 TC 15 4 117
1997118S09166 1997 27 SP MM JUNE 1997-04-29 03:00:00 TS -10.0075 167.893 main 544 537 P___________P_ SH351997 -10.0075 167.893 17 -1 -10.0075 167.893 TC 17 4 117
1997118S09166 1997 27 SP MM JUNE 1997-04-29 06:00:00 TS -10.1000 168.100 main 540 536 O___________O_ jtwc_sh SH351997 -10.1000 168.100 20 -1 -10.1000 168.100 TC 20 5 109
1997118S09166 1997 27 SP MM JUNE 1997-04-29 09:00:00 TS -10.1650 168.350 main 540 540 P___________P_ SH351997 -10.1650 168.350 20 -1 -10.1650 168.350 TC 20 5 101
1997118S09166 1997 27 SP MM JUNE 1997-04-29 12:00:00 TS -10.2000 168.600 main 548 548 O___________O_ jtwc_sh SH351997 -10.2000 168.600 20 -1 -10.2000 168.600 TC 20 5 95
1997118S09166 1997 27 SP MM JUNE 1997-04-29 15:00:00 TS -10.2075 168.808 main 557 557 P___________P_ SH351997 -10.2075 168.808 20 -1 -10.2075 168.808 TC 20 4 90
1997118S09166 1997 27 SP MM JUNE 1997-04-29 18:00:00 TS -10.2000 169.000 main 567 567 O___________O_ jtwc_sh SH351997 -10.2000 169.000 20 -1 -10.2000 169.000 TC 20 4 89
1997118S09166 1997 27 SP MM JUNE 1997-04-29 21:00:00 TS -10.2000 169.208 main 577 577 P___________P_ SH351997 -10.2000 169.208 20 -1 -10.2000 169.208 TC 20 4 90
1997118S09166 1997 27 SP MM JUNE 1997-04-30 00:00:00 TS -10.2000 169.400 main 588 588 O___________O_ jtwc_sh SH351997 -10.2000 169.400 20 -1 -10.2000 169.400 TC 20 3 89
1997118S09166 1997 27 SP MM JUNE 1997-04-30 03:00:00 TS -10.1925 169.558 main 600 600 P___________P_ SH351997 -10.1925 169.558 20 -1 -10.1925 169.558 TC 20 3 90
1997118S09166 1997 27 SP MM JUNE 1997-04-30 06:00:00 TS -10.2000 169.700 main 606 606 O___________O_ jtwc_sh SH351997 -10.2000 169.700 20 -1 -10.2000 169.700 TC 20 3 100
1997118S09166 1997 27 SP MM JUNE 1997-04-30 09:00:00 TS -10.2425 169.850 main 612 607 P___________P_ SH351997 -10.2425 169.850 22 -1 -10.2425 169.850 TC 22 3 109
1997118S09166 1997 27 SP MM JUNE 1997-04-30 12:00:00 TS -10.3000 170.000 main 613 613 O___________O_ jtwc_sh SH351997 -10.3000 170.000 25 -1 -10.3000 170.000 TC 25 3 110
1997118S09166 1997 27 SP MM JUNE 1997-04-30 15:00:00 TS -10.3500 170.150 main 624 615 P___________P_ SH351997 -10.3500 170.150 25 -1 -10.3500 170.150 TC 25 3 109
1997118S09166 1997 27 SP MM JUNE 1997-04-30 18:00:00 TS -10.4000 170.300 main 621 621 O___________O_ jtwc_sh SH351997 -10.4000 170.300 25 -1 -10.4000 170.300 TC 25 3 107
1997118S09166 1997 27 SP MM JUNE 1997-04-30 21:00:00 TS -10.4425 170.450 main 633 624 P___________P_ SH351997 -10.4425 170.450 25 -1 -10.4425 170.450 TC 25 3 109
1997118S09166 1997 27 SP MM JUNE 1997-05-01 00:00:00 TS -10.5000 170.600 main 630 628 O___________O_ jtwc_sh SH351997 -10.5000 170.600 25 -1 -10.5000 170.600 TC 25 3 116
1997118S09166 1997 27 SP MM JUNE 1997-05-01 03:00:00 TS -10.5850 170.743 main 628 626 P___________P_ SH351997 -10.5850 170.743 25 -1 -10.5850 170.743 TC 25 4 124
1997118S09166 1997 27 SP MM JUNE 1997-05-01 06:00:00 TS -10.7000 170.900 main 633 632 O___________O_ jtwc_sh SH351997 -10.7000 170.900 25 -1 -10.7000 170.900 TC 25 4 126
1997118S09166 1997 27 SP MM JUNE 1997-05-01 09:00:00 TS -10.8350 171.093 main 639 630 P___________P_ SH351997 -10.8350 171.093 25 -1 -10.8350 171.093 TC 25 5 127
1997118S09166 1997 27 SP MM JUNE 1997-05-01 12:00:00 TS -11.0000 171.300 main 638 638 O___________O_ jtwc_sh SH351997 -11.0000 171.300 25 -1 -11.0000 171.300 TC 25 5 132
1997118S09166 1997 27 SP MM JUNE 1997-05-01 15:00:00 TS -11.1925 171.500 main 638 638 P___________P_ SH351997 -11.1925 171.500 25 -1 -11.1925 171.500 TC 25 6 136
1997118S09166 1997 27 SP MM JUNE 1997-05-01 18:00:00 TS -11.4000 171.700 main 640 640 O___________O_ jtwc_sh SH351997 -11.4000 171.700 25 -1 -11.4000 171.700 TC 25 6 136
1997118S09166 1997 27 SP MM JUNE 1997-05-01 21:00:00 TS -11.5925 171.900 main 644 637 P___________P_ SH351997 -11.5925 171.900 27 -1 -11.5925 171.900 TC 27 5 141
1997118S09166 1997 27 SP MM JUNE 1997-05-02 00:00:00 TS -11.8000 172.033 main 639 636 O_______O___O_ jtwc_sh SH351997 -11.8000 172.100 30 -1 -11.8000 171.500 30 997 -11.8000 172.100 TC 30 5 148
1997118S09166 1997 27 SP MM JUNE 1997-05-02 03:00:00 TS -12.0225 172.178 main 645 640 P_______P___P_ SH351997 -12.0424 172.285 32 -1 -11.9425 171.750 30 997 -12.0424 172.285 TC 32 6 144
1997118S09166 1997 27 SP MM JUNE 1997-05-02 06:00:00 TS -12.2455 172.364 main 653 647 O_______O___O_ jtwc_sh SH351997 -12.3000 172.500 35 0 -12.1000 172.000 30 997 -12.3000 172.500 TC 35 6 137
1997118S09166 1997 27 SP MM JUNE 1997-05-02 09:00:00 TS -12.4666 172.602 main 656 656 P_______P___P_ SH351997 -12.5575 172.778 37 0 -12.2850 172.250 30 997 -12.5575 172.778 TC 37 7 131
1997118S09166 1997 27 SP MM JUNE 1997-05-02 12:00:00 TS -12.7000 172.900 main 677 677 O_______O___O_ jtwc_sh SH351997 -12.8000 173.100 40 0 -12.5000 172.500 30 997 -12.8000 173.100 TC 40 7 128
1997118S09166 1997 27 SP MM JUNE 1997-05-02 15:00:00 TS -12.9065 173.182 main 691 653 P_______P___P_ SH351997 -13.0074 173.435 42 0 -12.7046 172.676 30 997 -13.0074 173.435 TC 42 7 126
1997118S09166 1997 27 SP MM JUNE 1997-05-02 18:00:00 TS -13.1231 173.492 30 997 nadi main 653 592 O_______O___O_ jtwc_sh SH351997 -13.2000 173.800 45 0 -13.0000 173.000 30 997 -13.0000 173.000 30 997 -13.2000 173.800 TC 45 10 123
1997118S09166 1997 27 SP MM JUNE 1997-05-02 21:00:00 TS -13.4295 173.996 main 592 524 P______IP___P_ SH351997 -13.4000 174.193 45 0 -13.4806 173.780 35 993 -13.4631 173.712 35 993 -13.4000 174.193 TC 45 12 123
1997118S09166 1997 27 SP MM JUNE 1997-05-03 00:00:00 TS -13.7867 174.553 40 990 nadi main 517 456 O_______O___O_ jtwc_sh SH351997 -13.6000 174.600 45 0 -14.0000 174.500 40 990 -14.0000 174.500 40 990 -13.6000 174.600 TC 45 13 126
1997118S09166 1997 27 SP MM JUNE 1997-05-03 03:00:00 TS -14.1762 175.064 main 449 403 P______IP___P_ SH351997 -13.7926 175.030 47 0 -14.5599 175.097 40 990 -14.5599 175.097 40 990 -13.7926 175.030 TC 47 11 129
1997118S09166 1997 27 SP MM JUNE 1997-05-03 06:00:00 TS -14.5000 175.450 40 990 nadi main 398 373 O_______O___O_ jtwc_sh SH351997 -14.0000 175.400 50 0 -15.0000 175.500 40 990 -15.0000 175.500 40 990 -14.0000 175.400 TC 50 8 133
1997118S09166 1997 27 SP MM JUNE 1997-05-03 09:00:00 TS -14.7048 175.645 main 373 358 P______IP___P_ SH351997 -14.2424 175.638 52 0 -15.1673 175.653 40 990 -15.1673 175.653 40 990 -14.2424 175.638 TC 52 5 140
1997118S09166 1997 27 SP MM JUNE 1997-05-03 12:00:00 TS -14.8500 175.750 40 990 nadi main 352 327 O_______O___O_ jtwc_sh SH351997 -14.5000 175.800 55 0 -15.2000 175.700 40 990 -15.2000 175.700 40 990 -14.5000 175.800 TC 55 4 141
1997118S09166 1997 27 SP MM JUNE 1997-05-03 15:00:00 TS -15.0037 175.893 main 327 312 P______IP___P_ SH351997 -14.7500 175.950 57 0 -15.2575 175.835 42 988 -15.2575 175.835 42 988 -14.7500 175.950 TC 57 4 136
1997118S09166 1997 27 SP MM JUNE 1997-05-03 18:00:00 TS -15.1500 176.050 45 987 nadi main 307 282 O_______O___O_ jtwc_sh SH351997 -15.0000 176.100 60 0 -15.3000 176.000 45 987 -15.3000 176.000 45 987 -15.0000 176.100 TC 60 4 131
1997118S09166 1997 27 SP MM JUNE 1997-05-03 21:00:00 TS -15.2887 176.231 main 282 262 P______IP___P_ SH351997 -15.2650 176.285 62 0 -15.3125 176.178 47 986 -15.3125 176.178 47 986 -15.2650 176.285 TC 62 5 128
1997118S09166 1997 27 SP MM JUNE 1997-05-04 00:00:00 TS -15.4500 176.450 50 985 nadi main 258 218 O_______O___O_ jtwc_sh SH351997 -15.5000 176.500 65 1 -15.4000 176.400 50 985 -15.4000 176.400 50 985 -15.5000 176.500 TC 65 6 129
1997118S09166 1997 27 SP MM JUNE 1997-05-04 03:00:00 TS -15.6788 176.729 main 218 183 P______IP___P_ SH351997 -15.6725 176.758 65 1 -15.6851 176.700 50 985 -15.6851 176.700 50 985 -15.6725 176.758 TC 65 7 130
1997118S09166 1997 27 SP MM JUNE 1997-05-04 06:00:00 TS -15.9000 177.000 50 985 nadi main 183 159 O_______O___O_ jtwc_sh SH351997 -15.8000 177.000 65 1 -16.0000 177.000 50 985 -16.0000 177.000 50 985 -15.8000 177.000 TC 65 6 127
1997118S09166 1997 27 SP MM JUNE 1997-05-04 09:00:00 TS -16.0362 177.220 main 159 144 P______IP___P_ SH351997 -15.9000 177.188 62 0 -16.1725 177.253 50 985 -16.1725 177.253 50 985 -15.9000 177.188 TC 62 4 127
1997118S09166 1997 27 SP MM JUNE 1997-05-04 12:00:00 TS -16.1500 177.350 50 985 nadi main 144 125 O_______O___O_ jtwc_sh SH351997 -16.0000 177.300 60 0 -16.3000 177.400 50 985 -16.3000 177.400 50 985 -16.0000 177.300 TC 60 3 148
1997118S09166 1997 27 SP MM JUNE 1997-05-04 15:00:00 TS -16.2850 177.377 main 125 121 P______IP___P_ SH351997 -16.1274 177.352 60 0 -16.4425 177.403 45 987 -16.4425 177.403 45 987 -16.1274 177.352 TC 60 3 185
1997118S09166 1997 27 SP MM JUNE 1997-05-04 18:00:00 TS -16.4500 177.300 40 990 nadi main 124 105 O_______O___O_ jtwc_sh SH351997 -16.3000 177.300 60 0 -16.6000 177.300 40 990 -16.6000 177.300 40 990 -16.3000 177.300 TC 60 4 213
1997118S09166 1997 27 SP MM JUNE 1997-05-04 21:00:00 TS -16.6413 177.136 main 109 85 P______IP___P_ SH351997 -16.5051 177.123 55 0 -16.7775 177.150 37 992 -16.7775 177.150 37 992 -16.5051 177.123 TC 55 6 217
1997118S09166 1997 27 SP MM JUNE 1997-05-05 00:00:00 TS -16.9000 176.950 35 995 nadi main 85 69 O_______O___O_ jtwc_sh SH351997 -16.8000 176.900 50 0 -17.0000 177.000 35 995 -17.0000 177.000 35 995 -16.8000 176.900 TC 50 7 203
1997118S09166 1997 27 SP MM JUNE 1997-05-05 03:00:00 TS -17.2637 176.857 main 62 61 P______IP___P_ SH351997 -17.2498 176.780 45 0 -17.2775 176.935 32 995 -17.2775 176.935 32 995 -17.2498 176.780 TC 45 8 194
1997118S09166 1997 27 SP MM JUNE 1997-05-05 06:00:00 TS -17.6500 176.750 30 996 nadi main 61 54 O_______O___O_ jtwc_sh SH351997 -17.7000 176.600 40 0 -17.6000 176.900 30 996 -17.6000 176.900 30 996 -17.7000 176.600 TC 40 8 199
1997118S09166 1997 27 SP MM JUNE 1997-05-05 09:00:00 TS -18.0061 176.589 main 63 63 P______IP___P_ SH351997 -18.0251 176.238 37 0 -17.9871 176.940 30 996 -17.9871 176.940 30 996 -18.0251 176.238 TC 37 8 218
1997118S09166 1997 27 SP MM JUNE 1997-05-05 12:00:00 TS -18.2467 176.267 30 997 nadi main 97 97 O_______O___O_ jtwc_sh SH351997 -18.2000 175.800 35 0 -18.3000 176.800 30 997 -18.3000 176.800 30 997 -18.2000 175.800 TC 35 9 250
1997118S09166 1997 27 SP MM JUNE 1997-05-05 15:00:00 TS -18.3072 175.728 main 162 162 P______IP___P_ SH351997 -18.2175 175.385 35 0 -18.4135 176.270 27 998 -18.4336 176.143 27 998 -18.2175 175.385 TC 35 10 272
1997118S09166 1997 27 SP MM JUNE 1997-05-05 18:00:00 TS -18.2154 175.192 25 999 nadi main 212 212 O_______O___O_ jtwc_sh SH351997 -18.1000 175.000 35 0 -18.4000 175.500 25 999 -18.4000 175.500 25 999 -18.1000 175.000 TC 35 8 292
1997118S09166 1997 27 SP MM JUNE 1997-05-05 21:00:00 TS -17.9878 174.908 main 243 243 P_______P___P_ SH351997 -17.8775 174.655 35 0 -18.2086 175.414 25 999 -17.8775 174.655 TC 35 6 318
1997118S09166 1997 27 SP MM JUNE 1997-05-06 00:00:00 TS -17.8091 174.800 main 254 254 O_______O___O_ jtwc_sh SH351997 -17.7000 174.400 35 0 -18.0000 175.500 25 1000 -17.7000 174.400 TC 35 2 306
1997118S09166 1997 27 SP MM JUNE 1997-05-06 03:00:00 TS -17.8432 174.698 main 265 264 P_______P___P_ SH351997 -17.7474 174.233 32 -1 -17.9943 175.379 25 1000 -17.7325 174.265 TC 32 2 209
1997118S09166 1997 27 SP MM JUNE 1997-05-06 06:00:00 TS -18.0052 174.691 main 264 264 O_______P___O_ jtwc_sh SH351997 -17.9000 174.200 30 -1 -18.1104 175.182 25 1000 -17.9000 174.200 TC 30 4 173
1997118S09166 1997 27 SP MM JUNE 1997-05-06 09:00:00 NR -18.2159 174.733 main 265 265 P_______P_____ SH351997 -18.0551 174.310 27 -1 -18.2963 174.945 25 1000 TC 4 186
1997118S09166 1997 27 SP MM JUNE 1997-05-06 12:00:00 NR -18.4400 174.660 main 267 267 O_______O_____ jtwc_sh SH351997 -18.2000 174.500 25 -1 -18.5000 174.700 25 1000 5 211
1997118S09166 1997 27 SP MM JUNE 1997-05-06 15:00:00 NR -18.6104 174.484 main 292 292 ________P_____ SH351997 -1 -18.6104 174.484 25 1000 5 232
1997118S09166 1997 27 SP MM JUNE 1997-05-06 18:00:00 NR -18.7326 174.270 main 315 315 ________P_____ -1 -18.7326 174.270 25 1000 5 234
1997118S09166 1997 27 SP MM JUNE 1997-05-06 21:00:00 NR -18.8885 174.071 main 342 342 ________P_____ -1 -18.8885 174.071 25 1000 5 224
1997118S09166 1997 27 SP MM JUNE 1997-05-07 00:00:00 NR -19.1000 173.900 main 369 369 ________O_____ -1 -19.1000 173.900 25 1000 6 213
1997118S09166 1997 27 SP MM JUNE 1997-05-07 03:00:00 NR -19.3622 173.751 main 390 390 ________P_____ -1 -19.3622 173.751 25 1000 6 203
1997118S09166 1997 27 SP MM JUNE 1997-05-07 06:00:00 NR -19.6840 173.632 main 423 423 ________P_____ -1 -19.6840 173.632 25 1000 7 195
1997118S09166 1997 27 SP MM JUNE 1997-05-07 09:00:00 NR -20.0639 173.547 main 454 454 ________P_____ -1 -20.0639 173.547 25 1000 8 189
1997118S09166 1997 27 SP MM JUNE 1997-05-07 12:00:00 NR -20.5000 173.500 main 478 478 ________O_____ -1 -20.5000 173.500 25 1000 10 185
1997118S09166 1997 27 SP MM JUNE 1997-05-07 15:00:00 NR -21.0260 173.450 main 520 520 ________P_____ -1 -21.0260 173.450 25 1000 10 179
1997118S09166 1997 27 SP MM JUNE 1997-05-07 18:00:00 NR -21.5000 173.500 main 550 550 ________O_____ -1 -21.5000 173.500 25 1000 8 162
1997118S09166 1997 27 SP MM JUNE 1997-05-07 21:00:00 NR -21.7982 173.714 main 559 552 ________P_____ -1 -21.7982 173.714 25 1000 7 137
1997118S09166 1997 27 SP MM JUNE 1997-05-08 00:00:00 NR -22.0000 174.000 main 555 549 ________O_____ -1 -22.0000 174.000 25 1000 6 132
1997118S09166 1997 27 SP MM JUNE 1997-05-08 03:00:00 NR -22.2179 174.223 main 561 558 ________P_____ -1 -22.2179 174.223 25 1000 6 136
1997118S09166 1997 27 SP MM JUNE 1997-05-08 06:00:00 NR -22.4078 174.427 main 568 562 ________P_____ -1 -22.4078 174.427 25 1000 5 134
1997118S09166 1997 27 SP MM JUNE 1997-05-08 09:00:00 NR -22.5688 174.618 main 576 571 ________P_____ -1 -22.5688 174.618 25 1000 5 130
1997118S09166 1997 27 SP MM JUNE 1997-05-08 12:00:00 NR -22.7000 174.800 main 576 571 ________O_____ -1 -22.7000 174.800 25 1000 4 126
1997118S09166 1997 27 SP MM JUNE 1997-05-08 15:00:00 NR -22.7787 174.930 main 582 573 ________P_____ -1 -22.7787 174.930 25 1000 3 119
1997118S09166 1997 27 SP MM JUNE 1997-05-08 18:00:00 NR -22.8338 175.062 main 573 573 ________P_____ -1 -22.8338 175.062 25 1000 3 113
1997118S09166 1997 27 SP MM JUNE 1997-05-08 21:00:00 NR -22.8971 175.237 main 579 572 ________P_____ -1 -22.8971 175.237 25 1000 4 112
1997118S09166 1997 27 SP MM JUNE 1997-05-09 00:00:00 NR -23.0000 175.500 main 579 575 ________O_____ -1 -23.0000 175.500 25 1000 7 117
1997118S09166 1997 27 SP MM JUNE 1997-05-09 03:00:00 NR -23.2154 175.925 main 586 582 ________P_____ -1 -23.2154 175.925 25 1000 10 118
1997118S09166 1997 27 SP MM JUNE 1997-05-09 06:00:00 NR -23.4665 176.438 main 601 596 ________P_____ -1 -23.4665 176.438 25 1000 11 117
1997118S09166 1997 27 SP MM JUNE 1997-05-09 09:00:00 NR -23.7091 176.981 main 611 609 ________P_____ -1 -23.7091 176.981 25 1000 11 114
1997118S09166 1997 27 SP MM JUNE 1997-05-09 12:00:00 NR -23.9000 177.500 main 627 626 ________O_____ -1 -23.9000 177.500 25 1000 10 104
1997118S09166 1997 27 SP MM JUNE 1997-05-09 15:00:00 NR -23.9460 178.001 main 626 626 ________P_____ -1 -23.9460 178.001 25 1000 9 93
1997118S09166 1997 27 SP MM JUNE 1997-05-09 18:00:00 NR -23.9426 178.454 main 626 626 ________P_____ -1 -23.9426 178.454 25 1000 7 90
1997118S09166 1997 27 SP MM JUNE 1997-05-09 21:00:00 NR -23.9428 178.804 main 629 629 ________P_____ -1 -23.9428 178.804 25 1000 5 97
1997118S09166 1997 27 SP MM JUNE 1997-05-10 00:00:00 NR -24.0000 179.000 main 642 642 ________O_____ -1 -24.0000 179.000 25 1000 3 146
1997118S09166 1997 27 SP MM JUNE 1997-05-10 03:00:00 NR -24.1849 178.988 main 664 664 ________P_____ -1 -24.1849 178.988 25 1000 5 200
1997118S09166 1997 27 SP MM JUNE 1997-05-10 06:00:00 NR -24.4322 178.823 main 684 684 ________P_____ -1 -24.4322 178.823 25 1000 7 215
1997118S09166 1997 27 SP MM JUNE 1997-05-10 09:00:00 NR -24.7134 178.572 main 716 716 ________P_____ -1 -24.7134 178.572 25 1000 7 220
1997118S09166 1997 27 SP MM JUNE 1997-05-10 12:00:00 NR -25.0000 178.300 25 1000 wellington main 749 749 ________O_____ -1 -25.0000 178.300 25 1000 7 220
1997118S09166 1997 27 SP MM JUNE 1997-05-10 15:00:00 NR -25.2697 178.060 main 782 782 ________P_____ -1 -25.2697 178.060 25 1000 7 218
1997118S09166 1997 27 SP MM JUNE 1997-05-10 18:00:00 NR -25.5225 177.855 main 804 804 ________P_____ -1 -25.5225 177.855 25 1000 6 215
1997118S09166 1997 27 SP MM JUNE 1997-05-10 21:00:00 NR -25.7641 177.672 main 838 838 ________P_____ -1 -25.7641 177.672 25 1000 6 214
1997118S09166 1997 27 SP MM JUNE 1997-05-11 00:00:00 NR -26.0000 177.500 25 1000 wellington main 861 ________O_____ -1 -26.0000 177.500 25 1000 6 213

デジタル台風データ・検索

IBTrACS Databaseについて

本データベースは、米国NOAAが公開する1842年以降の世界の熱帯低気圧のベストトラックデータアーカイブInternational Best Track Archive for Climate Stewardship (IBTrACS)を、ウェブで閲覧しやすい形式に変換したものです。

最終更新日:2021-12-03